Time;durP1;ratioP1;P1;durP2;ratioP2;P2;SDS_P1;SDS_P2;PMS_P1;PMS_P2;Temp;Humidity;BMP_temperature;BMP_pressure;BME280_temperature;BME280_humidity;BME280_pressure;Samples;Min_cycle;Max_cycle;Signal;HPM_P1;HPM_P2
2021/10/19 00:02:28;;;;;;;18.17;3.40;;;24.80;39.50;;;;;;4950493;28;20574;-63
2021/10/19 00:04:55;;;;;;;23.95;3.05;;;24.60;39.70;;;;;;4951248;28;20087;-64
2021/10/19 00:07:24;;;;;;;24.80;2.83;;;24.50;39.90;;;;;;4952515;28;20542;-63
2021/10/19 00:09:51;;;;;;;26.65;3.50;;;24.30;40.40;;;;;;4950636;28;20087;-64
2021/10/19 00:12:17;;;;;;;21.95;2.92;;;24.30;40.70;;;;;;4951653;28;20281;-62
2021/10/19 00:14:43;;;;;;;20.70;2.50;;;24.10;40.60;;;;;;4952973;28;20166;-60
2021/10/19 00:17:10;;;;;;;22.83;2.90;;;24.10;40.60;;;;;;4951675;28;20097;-63
2021/10/19 00:19:37;;;;;;;32.17;3.63;;;24.00;41.10;;;;;;4951642;28;20083;-64
2021/10/19 00:22:04;;;;;;;24.83;3.20;;;24.00;41.30;;;;;;4951105;28;20099;-66
2021/10/19 00:24:31;;;;;;;18.13;3.38;;;23.90;41.40;;;;;;4967280;28;20071;-62
2021/10/19 00:26:58;;;;;;;30.90;3.72;;;23.80;42.30;;;;;;4950264;28;20122;-65
2021/10/19 00:29:25;;;;;;;31.25;3.10;;;23.60;43.40;;;;;;4952310;28;20084;-64
2021/10/19 00:31:52;;;;;;;34.20;3.72;;;23.40;43.20;;;;;;4967004;28;20120;-63
2021/10/19 00:34:18;;;;;;;29.58;2.88;;;23.40;43.60;;;;;;4952435;28;20094;-65
2021/10/19 00:36:45;;;;;;;38.10;2.97;;;23.20;44.00;;;;;;4966885;28;20103;-66
2021/10/19 00:39:12;;;;;;;32.45;3.72;;;23.00;44.50;;;;;;4952032;28;20154;-65
2021/10/19 00:41:38;;;;;;;27.52;2.90;;;22.90;44.80;;;;;;4950760;28;20091;-65
2021/10/19 00:44:04;;;;;;;27.35;2.65;;;22.90;45.10;;;;;;4951750;28;20086;-66
2021/10/19 00:46:31;;;;;;;23.27;3.03;;;22.90;45.30;;;;;;4952410;28;20087;-66
2021/10/19 00:48:57;;;;;;;16.40;2.30;;;22.80;45.60;;;;;;4966746;28;20083;-64
2021/10/19 00:51:24;;;;;;;25.75;3.15;;;22.70;45.60;;;;;;4950474;28;20133;-64
2021/10/19 00:53:51;;;;;;;28.30;2.63;;;22.60;45.70;;;;;;4951233;28;20087;-64
2021/10/19 00:56:17;;;;;;;18.17;2.78;;;22.50;45.50;;;;;;4966490;28;20083;-61
2021/10/19 00:58:44;;;;;;;19.38;3.00;;;22.50;45.70;;;;;;4950647;28;20072;-65
2021/10/19 01:01:10;;;;;;;29.40;3.05;;;22.40;45.80;;;;;;4965855;28;20160;-65
2021/10/19 01:03:37;;;;;;;27.98;3.75;;;22.40;46.10;;;;;;4948244;28;20613;-66
2021/10/19 01:06:07;;;;;;;21.95;2.03;;;22.20;46.20;;;;;;4966484;28;20114;-63
2021/10/19 01:08:37;;;;;;;15.77;1.92;;;22.10;46.20;;;;;;4950365;28;20160;-63
2021/10/19 01:11:05;;;;;;;12.98;1.90;;;22.00;46.40;;;;;;4966098;28;20078;-63
2021/10/19 01:13:32;;;;;;;19.23;2.25;;;21.90;46.60;;;;;;4966013;28;20134;-66
2021/10/19 01:16:08;;;;;;;11.82;2.30;;;21.90;46.70;;;;;;4966255;28;20450;-64
2021/10/19 01:18:36;;;;;;;19.85;2.47;;;21.80;46.80;;;;;;4951634;28;20109;-65
2021/10/19 01:21:04;;;;;;;12.93;2.13;;;21.80;46.80;;;;;;4966491;28;20082;-66
2021/10/19 01:23:32;;;;;;;13.88;2.90;;;21.80;46.70;;;;;;4950581;28;20111;-67
2021/10/19 01:25:59;;;;;;;11.93;2.10;;;21.80;46.80;;;;;;4964389;28;20481;-67
2021/10/19 01:28:26;;;;;;;20.63;2.05;;;21.70;46.90;;;;;;4966430;28;20071;-66
2021/10/19 01:30:54;;;;;;;9.48;1.50;;;21.70;47.00;;;;;;4948425;28;20139;-65
2021/10/19 01:33:21;;;;;;;16.65;1.90;;;21.70;47.00;;;;;;4950792;28;20103;-66
2021/10/19 01:35:47;;;;;;;14.15;2.25;;;21.70;47.00;;;;;;4950683;28;20075;-65
2021/10/19 01:38:17;;;;;;;6.82;1.45;;;21.70;47.00;;;;;;4964923;28;20123;-65
2021/10/19 01:40:44;;;;;;;13.13;2.03;;;21.60;47.10;;;;;;4964056;28;20072;-65
2021/10/19 01:43:12;;;;;;;15.35;2.30;;;21.60;47.20;;;;;;4948307;28;20434;-64
2021/10/19 01:45:39;;;;;;;8.65;1.75;;;21.60;47.30;;;;;;4963982;28;20088;-62
2021/10/19 01:48:07;;;;;;;9.55;1.77;;;21.50;47.30;;;;;;4949192;28;20490;-62
2021/10/19 01:50:34;;;;;;;7.43;1.77;;;21.40;47.40;;;;;;4964553;28;20166;-66
2021/10/19 01:53:01;;;;;;;17.75;2.28;;;21.40;47.50;;;;;;4965524;28;20517;-62
2021/10/19 01:55:27;;;;;;;13.18;1.77;;;21.40;47.40;;;;;;4966165;28;20072;-63
2021/10/19 01:57:54;;;;;;;7.50;1.63;;;21.40;47.40;;;;;;4965996;28;20104;-62
2021/10/19 02:00:20;;;;;;;14.85;2.10;;;21.40;47.20;;;;;;4950689;28;20091;-64
2021/10/19 02:02:46;;;;;;;11.10;1.88;;;21.40;47.30;;;;;;4964481;28;20087;-65
2021/10/19 02:05:13;;;;;;;9.98;1.90;;;21.30;47.30;;;;;;4951350;28;20379;-65
2021/10/19 02:07:39;;;;;;;13.13;1.60;;;21.30;47.20;;;;;;4951914;28;20084;-68
2021/10/19 02:10:07;;;;;;;11.07;1.73;;;21.30;47.30;;;;;;4950169;28;20462;-66
2021/10/19 02:12:34;;;;;;;15.02;2.03;;;21.20;47.10;;;;;;4966636;28;20076;-66
2021/10/19 02:15:00;;;;;;;7.78;1.80;;;21.20;47.10;;;;;;4949873;28;20103;-62
2021/10/19 02:17:27;;;;;;;18.42;2.10;;;21.20;47.10;;;;;;4966246;28;20111;-67
2021/10/19 02:19:53;;;;;;;17.05;2.25;;;21.10;46.70;;;;;;4966546;28;20502;-67
2021/10/19 02:22:19;;;;;;;;;;;21.10;46.40;;;;;;4949993;28;20101;-67
2021/10/19 02:24:45;;;;;;;16.23;2.47;;;21.10;46.00;;;;;;4968934;28;20449;-64
2021/10/19 02:27:11;;;;;;;;;;;21.00;45.60;;;;;;4954082;28;20135;-64
2021/10/19 02:29:38;;;;;;;22.05;3.20;;;21.00;45.60;;;;;;4953995;28;19966;-66
2021/10/19 02:32:04;;;;;;;10.88;2.20;;;20.90;45.80;;;;;;4968750;28;20119;-65
2021/10/19 02:34:31;;;;;;;14.38;2.28;;;20.90;46.20;;;;;;4968947;28;20076;-65
2021/10/19 02:36:57;;;;;;;11.73;2.05;;;20.90;46.60;;;;;;4968124;28;20127;-65
2021/10/19 02:39:24;;;;;;;21.13;2.67;;;20.80;47.10;;;;;;4953604;28;20181;-69
2021/10/19 02:41:50;;;;;;;11.40;2.25;;;20.80;47.50;;;;;;4953542;28;20072;-64
2021/10/19 02:44:16;;;;;;;;;;;20.70;48.10;;;;;;4953821;28;20078;-64
2021/10/19 02:46:42;;;;;;;11.95;2.40;;;20.60;48.30;;;;;;4953412;28;19973;-66
2021/10/19 02:49:09;;;;;;;;;;;20.60;48.50;;;;;;4953533;28;20073;-64
2021/10/19 02:51:35;;;;;;;15.48;2.30;;;20.60;48.70;;;;;;4953546;28;20101;-69
2021/10/19 02:54:01;;;;;;;15.60;2.08;;;20.50;48.80;;;;;;4952926;28;20115;-63
2021/10/19 02:56:28;;;;;;;12.77;2.08;;;20.60;49.00;;;;;;4969118;28;20079;-68
2021/10/19 02:58:54;;;;;;;10.35;2.55;;;20.50;49.20;;;;;;4953853;28;20606;-67
2021/10/19 03:01:21;;;;;;;10.40;2.10;;;20.50;49.40;;;;;;4968839;28;20072;-68
2021/10/19 03:03:48;;;;;;;12.55;1.77;;;20.50;49.50;;;;;;4968492;28;20542;-65
2021/10/19 03:06:14;;;;;;;9.52;1.95;;;20.50;49.60;;;;;;4953149;28;20083;-65
2021/10/19 03:08:41;;;;;;;7.40;1.92;;;20.40;49.60;;;;;;4969158;28;20593;-66
2021/10/19 03:11:08;;;;;;;10.20;2.42;;;20.40;49.60;;;;;;4954121;28;20084;-65
2021/10/19 03:13:34;;;;;;;;;;;20.40;49.60;;;;;;4953024;28;20072;-65
2021/10/19 03:16:00;;;;;;;11.20;2.47;;;20.40;49.80;;;;;;4968539;28;20302;-65
2021/10/19 03:18:27;;;;;;;16.58;2.25;;;20.40;49.90;;;;;;4968114;28;20096;-64
2021/10/19 03:20:54;;;;;;;;;;;20.40;49.90;;;;;;4968865;28;20115;-65
2021/10/19 03:23:20;;;;;;;20.92;2.42;;;20.40;50.10;;;;;;4953150;28;19962;-66
2021/10/19 03:25:47;;;;;;;10.75;2.40;;;20.40;50.20;;;;;;4968267;28;20080;-66
2021/10/19 03:28:13;;;;;;;15.32;2.78;;;20.40;50.20;;;;;;4952191;28;20083;-65
2021/10/19 03:30:40;;;;;;;12.70;2.08;;;20.30;50.40;;;;;;4966009;28;20103;-68
2021/10/19 03:33:07;;;;;;;13.45;2.45;;;20.30;50.80;;;;;;4965976;28;20076;-67
2021/10/19 03:35:33;;;;;;;12.30;2.20;;;20.20;51.00;;;;;;4952065;28;20095;-65
2021/10/19 03:37:59;;;;;;;;;;;20.20;50.80;;;;;;4968471;28;20096;-68
2021/10/19 03:40:25;;;;;;;21.55;3.45;;;20.10;50.40;;;;;;4951067;28;20097;-68
2021/10/19 03:42:51;;;;;;;;;;;20.10;50.00;;;;;;4952926;28;20084;-65
2021/10/19 03:45:18;;;;;;;36.80;4.88;;;20.00;49.50;;;;;;4951517;28;19970;-65
2021/10/19 03:47:45;;;;;;;52.00;4.43;;;19.90;49.10;;;;;;4952644;28;20546;-66
2021/10/19 03:50:13;;;;;;;49.85;3.13;;;19.90;49.10;;;;;;4951877;28;20084;-64
2021/10/19 03:52:41;;;;;;;32.47;3.38;;;19.90;49.50;;;;;;4952427;28;20572;-65
2021/10/19 03:55:09;;;;;;;43.58;4.13;;;19.90;49.50;;;;;;4951510;28;20096;-63
2021/10/19 03:57:36;;;;;;;38.40;4.28;;;19.90;49.00;;;;;;4952014;28;20533;-63
2021/10/19 04:00:04;;;;;;;43.15;3.83;;;19.80;48.80;;;;;;4953033;28;20127;-64
2021/10/19 04:02:30;;;;;;;48.15;4.63;;;19.80;48.30;;;;;;4967301;28;20094;-67
2021/10/19 04:04:57;;;;;;;40.20;4.07;;;19.80;48.10;;;;;;4968720;28;20542;-65
2021/10/19 04:07:23;;;;;;;35.47;3.15;;;19.80;48.50;;;;;;4968781;28;20100;-66
2021/10/19 04:09:49;;;;;;;;;;;19.80;49.00;;;;;;4952638;28;20090;-64
2021/10/19 04:12:15;;;;;;;26.75;3.70;;;19.70;49.80;;;;;;4951478;28;19978;-65
2021/10/19 04:14:42;;;;;;;27.48;2.58;;;19.80;49.20;;;;;;4969498;28;20473;-63
2021/10/19 04:17:08;;;;;;;19.08;2.80;;;19.80;49.00;;;;;;4967134;28;20102;-63
2021/10/19 04:19:35;;;;;;;17.02;1.95;;;19.80;49.20;;;;;;4952787;28;20086;-66
2021/10/19 04:22:01;;;;;;;16.20;2.25;;;19.80;49.40;;;;;;4967279;28;20100;-64
2021/10/19 04:24:27;;;;;;;;;;;19.80;49.40;;;;;;4966358;28;20076;-63
2021/10/19 04:26:53;;;;;;;12.85;1.98;;;19.80;49.00;;;;;;4955726;28;20061;-68
2021/10/19 04:29:19;;;;;;;;;;;19.80;48.50;;;;;;4952399;28;20489;-67
2021/10/19 04:31:46;;;;;;;15.40;2.30;;;19.80;48.00;;;;;;4966486;28;20036;-64
2021/10/19 04:34:12;;;;;;;13.73;2.38;;;19.80;47.30;;;;;;4952635;28;20072;-65
2021/10/19 04:36:39;;;;;;;21.77;2.30;;;19.80;46.80;;;;;;4950869;28;20091;-65
2021/10/19 04:39:05;;;;;;;;;;;19.80;46.40;;;;;;4951375;28;20080;-65
2021/10/19 04:41:31;;;;;;;12.75;1.83;;;19.80;46.10;;;;;;4951904;28;20356;-68
2021/10/19 04:43:57;;;;;;;;;;;19.80;45.90;;;;;;4935434;28;20075;-68
2021/10/19 04:46:24;;;;;;;15.55;1.83;;;19.90;45.90;;;;;;4965608;28;20417;-68
2021/10/19 04:48:50;;;;;;;12.18;1.90;;;19.90;46.20;;;;;;4950904;28;20075;-67
2021/10/19 04:51:16;;;;;;;;;;;19.90;45.40;;;;;;4952457;28;20070;-67
2021/10/19 04:53:42;;;;;;;12.45;1.70;;;19.90;45.20;;;;;;4950450;28;20021;-67
2021/10/19 04:56:10;;;;;;;11.15;2.05;;;19.90;45.00;;;;;;4951197;28;20453;-68
2021/10/19 04:58:36;;;;;;;13.52;1.80;;;19.80;45.00;;;;;;4966583;28;20554;-67
2021/10/19 05:01:02;;;;;;;15.15;1.95;;;19.90;45.30;;;;;;4952252;28;20565;-66
2021/10/19 05:03:28;;;;;;;;;;;19.80;45.60;;;;;;4952158;28;20125;-70
2021/10/19 05:05:55;;;;;;;14.48;1.80;;;19.70;46.40;;;;;;4950564;28;20034;-68
2021/10/19 05:08:21;;;;;;;;;;;19.60;46.70;;;;;;4952573;28;20076;-72
2021/10/19 05:10:47;;;;;;;16.08;2.08;;;19.50;46.50;;;;;;4967778;28;19990;-71
2021/10/19 05:13:14;;;;;;;13.52;1.83;;;19.40;46.00;;;;;;4948241;28;20162;-66
2021/10/19 05:15:40;;;;;;;;;;;19.40;46.50;;;;;;4963026;28;20115;-66
2021/10/19 05:18:06;;;;;;;23.15;2.08;;;19.40;46.70;;;;;;4966317;28;20018;-64
2021/10/19 05:20:32;;;;;;;;;;;19.40;46.80;;;;;;4951513;28;20080;-67
2021/10/19 05:22:58;;;;;;;14.90;1.88;;;19.40;47.00;;;;;;4952151;28;20345;-65
2021/10/19 05:25:25;;;;;;;12.00;1.52;;;19.40;47.30;;;;;;4951903;28;20091;-65
2021/10/19 05:27:51;;;;;;;9.05;1.60;;;19.30;47.60;;;;;;4951068;28;20087;-69
2021/10/19 05:30:17;;;;;;;;;;;19.30;47.90;;;;;;4966335;28;20151;-67
2021/10/19 05:32:45;;;;;;;11.23;1.83;;;19.20;48.20;;;;;;4951814;28;19974;-64
2021/10/19 05:35:11;;;;;;;13.90;2.28;;;19.20;48.50;;;;;;4966550;28;20076;-64
2021/10/19 05:37:37;;;;;;;19.55;1.83;;;19.20;48.80;;;;;;4965657;28;20094;-68
2021/10/19 05:40:04;;;;;;;;;;;19.10;49.40;;;;;;4966764;28;20146;-67
2021/10/19 05:42:31;;;;;;;9.85;2.00;;;19.10;49.80;;;;;;4949733;28;19959;-67
2021/10/19 05:44:57;;;;;;;13.50;2.00;;;19.10;50.40;;;;;;4964780;28;20113;-64
2021/10/19 05:47:24;;;;;;;8.20;1.30;;;19.10;50.70;;;;;;4963841;28;20087;-67
2021/10/19 05:49:50;;;;;;;15.32;1.92;;;19.00;51.40;;;;;;4949200;28;20099;-67
2021/10/19 05:52:17;;;;;;;9.05;1.55;;;19.00;51.10;;;;;;4964912;28;20135;-66
2021/10/19 05:54:43;;;;;;;9.25;1.50;;;19.00;51.40;;;;;;4949445;28;20084;-65
2021/10/19 05:57:09;;;;;;;;;;;18.90;51.60;;;;;;4949855;28;20151;-66
2021/10/19 05:59:35;;;;;;;7.47;2.70;;;18.90;52.00;;;;;;4967671;28;20006;-65
2021/10/19 06:02:03;;;;;;;;;;;18.80;52.40;;;;;;4952519;28;20079;-65
2021/10/19 06:04:30;;;;;;;11.15;1.95;;;18.80;52.80;;;;;;4953081;28;19962;-66
2021/10/19 06:07:00;;;;;;;5.13;1.52;;;18.80;53.10;;;;;;4952670;28;20211;-67
2021/10/19 06:09:28;;;;;;;5.57;1.45;;;18.80;53.20;;;;;;4952693;28;20088;-66
2021/10/19 06:11:55;;;;;;;8.70;1.73;;;18.70;53.50;;;;;;4953296;28;20445;-64
2021/10/19 06:14:23;;;;;;;6.50;1.70;;;18.70;53.80;;;;;;4952508;28;20080;-66
2021/10/19 06:16:51;;;;;;;8.40;2.08;;;18.70;54.00;;;;;;4969989;28;20563;-66
2021/10/19 06:19:17;;;;;;;8.68;1.70;;;18.70;54.20;;;;;;4954844;28;20554;-66
2021/10/19 06:21:44;;;;;;;11.55;2.05;;;18.60;54.40;;;;;;4967908;28;20431;-67
2021/10/19 06:24:11;;;;;;;7.25;2.08;;;18.60;54.50;;;;;;4953258;28;20075;-66
2021/10/19 06:26:38;;;;;;;10.77;2.45;;;18.60;54.60;;;;;;4951870;28;20123;-67
2021/10/19 06:29:07;;;;;;;10.15;2.05;;;18.60;54.80;;;;;;4969134;28;20458;-66
2021/10/19 06:31:34;;;;;;;7.05;2.30;;;18.50;54.90;;;;;;4967089;28;20116;-66
2021/10/19 06:34:02;;;;;;;10.30;2.30;;;18.50;55.20;;;;;;4967990;28;20079;-66
2021/10/19 06:36:29;;;;;;;5.57;2.35;;;18.50;55.40;;;;;;4950766;28;20557;-64
2021/10/19 06:38:55;;;;;;;13.77;2.80;;;18.40;55.60;;;;;;4966459;28;20080;-63
2021/10/19 06:41:23;;;;;;;7.97;1.92;;;18.50;55.60;;;;;;4952670;28;20080;-67
2021/10/19 06:43:50;;;;;;;6.00;2.20;;;18.50;55.60;;;;;;4953342;28;20080;-66
2021/10/19 06:46:17;;;;;;;7.00;1.90;;;18.40;55.40;;;;;;4967304;28;20159;-65
2021/10/19 06:48:44;;;;;;;7.05;2.00;;;18.50;55.40;;;;;;4952427;28;20091;-66
2021/10/19 06:51:10;;;;;;;;;;;18.50;55.00;;;;;;4967975;28;20076;-65
2021/10/19 06:53:36;;;;;;;12.98;1.90;;;18.50;54.70;;;;;;4952878;28;19959;-65
2021/10/19 06:56:02;;;;;;;;;;;18.40;54.70;;;;;;4955062;28;20083;-65
2021/10/19 06:58:28;;;;;;;9.63;2.10;;;18.40;54.40;;;;;;4952243;28;20332;-63
2021/10/19 07:00:55;;;;;;;;;;;18.40;54.10;;;;;;4952960;28;20071;-66
2021/10/19 07:03:24;;;;;;;11.85;2.03;;;18.40;53.90;;;;;;4968369;28;19959;-66
2021/10/19 07:05:50;;;;;;;10.48;2.28;;;18.40;53.80;;;;;;4953581;28;20123;-68
2021/10/19 07:08:17;;;;;;;13.55;2.20;;;18.40;53.70;;;;;;4965954;28;20527;-65
2021/10/19 07:10:44;;;;;;;6.93;1.75;;;18.40;53.70;;;;;;4948886;28;20095;-65
2021/10/19 07:13:10;;;;;;;7.00;1.73;;;18.40;53.80;;;;;;4951134;28;20084;-63
2021/10/19 07:15:37;;;;;;;10.57;1.80;;;18.40;53.80;;;;;;4964988;28;20095;-64
2021/10/19 07:18:07;;;;;;;10.60;2.00;;;18.40;53.90;;;;;;4952558;28;20095;-66
2021/10/19 07:20:34;;;;;;;9.63;2.28;;;18.40;53.90;;;;;;4950094;28;20152;-64
2021/10/19 07:23:01;;;;;;;5.18;1.92;;;18.40;53.90;;;;;;4951387;28;20080;-65
2021/10/19 07:25:28;;;;;;;10.25;2.10;;;18.40;53.90;;;;;;4951524;28;20158;-63
2021/10/19 07:27:58;;;;;;;9.90;2.22;;;18.40;53.90;;;;;;4951033;28;20575;-64
2021/10/19 07:30:24;;;;;;;9.52;3.88;;;18.40;53.90;;;;;;4952907;28;20135;-65
2021/10/19 07:32:52;;;;;;;7.05;2.75;;;18.40;53.80;;;;;;4951667;28;20099;-64
2021/10/19 07:35:18;;;;;;;8.52;2.88;;;18.30;53.80;;;;;;4948781;28;20617;-64
2021/10/19 07:37:44;;;;;;;;;;;18.30;53.90;;;;;;4951228;28;20132;-64
2021/10/19 07:40:12;;;;;;;11.93;2.22;;;18.30;54.00;;;;;;4949331;28;20641;-66
2021/10/19 07:42:39;;;;;;;9.65;2.15;;;18.30;53.90;;;;;;4950106;28;20532;-63
2021/10/19 07:45:09;;;;;;;6.53;2.10;;;18.30;53.70;;;;;;4965330;28;20205;-65
2021/10/19 07:47:42;;;;;;;6.80;2.20;;;18.30;53.70;;;;;;4950431;28;20190;-65
2021/10/19 07:50:11;;;;;;;8.82;2.53;;;18.30;53.70;;;;;;4949960;28;20091;-63
2021/10/19 07:52:38;;;;;;;9.27;3.33;;;18.30;53.80;;;;;;4950424;28;20534;-65
2021/10/19 07:55:06;;;;;;;10.15;2.75;;;18.30;53.80;;;;;;4951798;28;20080;-63
2021/10/19 07:57:32;;;;;;;10.98;3.00;;;18.20;53.90;;;;;;4952317;28;20095;-64
2021/10/19 07:59:58;;;;;;;;;;;18.20;54.10;;;;;;4951984;28;20087;-62
2021/10/19 08:02:24;;;;;;;6.78;2.53;;;18.10;54.20;;;;;;4952373;28;19966;-62
2021/10/19 08:04:50;;;;;;;;;;;18.10;54.40;;;;;;4952986;28;20435;-64
2021/10/19 08:07:17;;;;;;;9.70;2.60;;;18.10;54.70;;;;;;4964720;28;19986;-64
2021/10/19 08:09:43;;;;;;;;;;;18.00;54.90;;;;;;4966982;28;20606;-63
2021/10/19 08:12:09;;;;;;;12.10;2.95;;;18.00;55.20;;;;;;4951063;28;20041;-64
2021/10/19 08:14:35;;;;;;;;;;;17.90;55.40;;;;;;4950924;28;20094;-62
2021/10/19 08:17:01;;;;;;;8.27;2.60;;;17.90;55.70;;;;;;4950717;28;19975;-64
2021/10/19 08:19:28;;;;;;;10.00;2.92;;;17.80;55.90;;;;;;4964698;28;20601;-63
2021/10/19 08:21:54;;;;;;;;;;;17.80;55.90;;;;;;4965253;28;20537;-64
2021/10/19 08:24:20;;;;;;;6.18;2.33;;;17.80;55.90;;;;;;4952164;28;20324;-64
2021/10/19 08:26:46;;;;;;;;;;;17.80;56.00;;;;;;4949956;28;20087;-65
2021/10/19 08:29:12;;;;;;;7.82;2.08;;;17.80;55.80;;;;;;4965954;28;19966;-64
2021/10/19 08:31:39;;;;;;;7.50;1.95;;;17.70;55.50;;;;;;4964704;28;20128;-63
2021/10/19 08:34:05;;;;;;;6.30;1.83;;;17.70;55.50;;;;;;4950655;28;20084;-64
2021/10/19 08:36:31;;;;;;;;;;;17.70;55.40;;;;;;4966621;28;20090;-62
2021/10/19 08:38:57;;;;;;;6.82;2.00;;;17.60;55.10;;;;;;4949691;28;20353;-63
2021/10/19 08:41:27;;;;;;;;;;;17.70;55.00;;;;;;4951472;28;20113;-61
2021/10/19 08:43:53;;;;;;;5.35;1.35;;;17.60;54.90;;;;;;4950140;28;19963;-62
2021/10/19 08:46:19;;;;;;;;;;;17.60;54.90;;;;;;4964449;28;20759;-63
2021/10/19 08:48:45;;;;;;;4.00;1.70;;;17.70;54.70;;;;;;4951177;28;19959;-65
2021/10/19 08:51:11;;;;;;;;;;;17.70;54.60;;;;;;4953216;28;20090;-65
2021/10/19 08:53:39;;;;;;;4.78;1.80;;;17.60;54.50;;;;;;4966434;28;19994;-64
2021/10/19 08:56:06;;;;;;;8.48;1.85;;;17.60;54.60;;;;;;4950158;28;20068;-65
2021/10/19 08:58:33;;;;;;;5.30;1.58;;;17.60;54.60;;;;;;4949923;28;20084;-64
2021/10/19 09:01:08;;;;;;;6.45;1.88;;;17.60;54.70;;;;;;4964954;28;20088;-65
2021/10/19 09:03:35;;;;;;;5.05;1.70;;;17.60;54.80;;;;;;4964816;28;20103;-63
2021/10/19 09:06:02;;;;;;;5.97;1.80;;;17.60;54.80;;;;;;4949986;28;20108;-63
2021/10/19 09:08:28;;;;;;;5.68;1.90;;;17.50;54.70;;;;;;4966134;28;20114;-63
2021/10/19 09:10:54;;;;;;;;;;;17.60;55.00;;;;;;4951482;28;20074;-65
2021/10/19 09:13:21;;;;;;;6.93;2.00;;;17.50;54.90;;;;;;4949253;28;19966;-64
2021/10/19 09:15:49;;;;;;;4.65;1.90;;;17.40;54.90;;;;;;4949154;28;20168;-62
2021/10/19 09:18:21;;;;;;;5.50;1.80;;;17.50;55.30;;;;;;4963821;28;20088;-64
2021/10/19 09:20:53;;;;;;;5.50;1.42;;;17.50;55.30;;;;;;4933910;28;20557;-63
2021/10/19 09:23:22;;;;;;;5.60;1.75;;;17.40;55.10;;;;;;4949460;28;20670;-63
2021/10/19 09:25:51;;;;;;;7.15;1.77;;;17.40;55.20;;;;;;4948881;28;20080;-63
2021/10/19 09:28:35;;;;;;;8.60;1.67;;;17.40;55.40;;;;;;4965248;28;20084;-63
2021/10/19 09:31:02;;;;;;;8.45;1.80;;;17.30;55.40;;;;;;4965796;28;20131;-64
2021/10/19 09:33:28;;;;;;;;;;;17.30;55.50;;;;;;4936288;28;20091;-63
2021/10/19 09:35:55;;;;;;;5.72;1.63;;;17.20;55.40;;;;;;4953801;28;19959;-64
2021/10/19 09:38:22;;;;;;;6.78;1.58;;;17.20;55.60;;;;;;4968765;28;20099;-64
2021/10/19 09:40:52;;;;;;;6.40;1.90;;;17.20;55.60;;;;;;4953277;28;20578;-64
2021/10/19 09:43:25;;;;;;;5.60;1.60;;;17.20;55.70;;;;;;4953935;28;20101;-64
2021/10/19 09:45:56;;;;;;;6.63;1.75;;;17.20;55.70;;;;;;4951729;28;20072;-63
2021/10/19 09:48:27;;;;;;;6.70;2.20;;;17.10;55.90;;;;;;4953446;28;20076;-64
2021/10/19 09:50:55;;;;;;;5.78;1.88;;;17.10;55.90;;;;;;4952038;28;20581;-63
2021/10/19 09:53:25;;;;;;;4.03;1.58;;;17.10;55.90;;;;;;4968473;28;20099;-63
2021/10/19 09:55:53;;;;;;;5.80;1.70;;;17.10;55.90;;;;;;4968425;28;20090;-61
2021/10/19 09:58:20;;;;;;;6.28;1.95;;;17.00;55.80;;;;;;4937198;28;20084;-63
2021/10/19 10:00:49;;;;;;;7.00;1.58;;;17.00;55.90;;;;;;4953630;28;21375;-66
2021/10/19 10:03:15;;;;;;;5.10;1.40;;;17.00;56.00;;;;;;4954078;28;20075;-63
2021/10/19 10:05:42;;;;;;;8.63;1.85;;;17.00;55.90;;;;;;4954145;28;20074;-65
2021/10/19 10:08:18;;;;;;;4.53;1.63;;;16.90;55.80;;;;;;4952397;28;20119;-64
2021/10/19 10:10:50;;;;;;;4.50;1.45;;;16.90;55.80;;;;;;4937918;28;20613;-63
2021/10/19 10:13:16;;;;;;;4.32;1.50;;;16.90;55.50;;;;;;4953017;28;20423;-64
2021/10/19 10:15:43;;;;;;;4.88;1.50;;;16.90;55.30;;;;;;4968855;28;20437;-64
2021/10/19 10:18:12;;;;;;;7.07;1.33;;;16.90;55.30;;;;;;4968455;28;20111;-63
2021/10/19 10:20:49;;;;;;;6.00;1.45;;;16.90;55.30;;;;;;4936227;28;20163;-64
2021/10/19 10:23:17;;;;;;;6.03;1.40;;;16.90;55.30;;;;;;4939139;28;20078;-66
2021/10/19 10:25:45;;;;;;;3.78;1.45;;;16.80;55.20;;;;;;4969277;28;20088;-63
2021/10/19 10:28:26;;;;;;;9.30;1.77;;;16.80;55.30;;;;;;4954087;28;20429;-64
2021/10/19 10:30:57;;;;;;;8.93;1.60;;;16.80;55.30;;;;;;4953077;28;20127;-63
2021/10/19 10:33:38;;;;;;;6.85;1.40;;;16.70;55.50;;;;;;4951620;28;20091;-63
2021/10/19 10:36:10;;;;;;;3.83;1.38;;;16.70;55.50;;;;;;4936676;28;20084;-65
2021/10/19 10:38:39;;;;;;;6.45;1.70;;;16.80;55.80;;;;;;4951712;28;20088;-63
2021/10/19 10:41:14;;;;;;;6.82;1.88;;;16.80;55.90;;;;;;4953353;28;20139;-64
2021/10/19 10:43:41;;;;;;;4.57;1.60;;;16.70;56.20;;;;;;4951858;28;20166;-63
2021/10/19 10:46:19;;;;;;;4.68;1.83;;;16.60;57.10;;;;;;4952343;28;20076;-64
2021/10/19 10:48:46;;;;;;;9.68;2.03;;;16.50;57.70;;;;;;4951228;28;20423;-65
2021/10/19 10:51:14;;;;;;;8.90;1.95;;;16.40;58.10;;;;;;4952451;28;20086;-63
2021/10/19 10:53:43;;;;;;;6.93;1.88;;;16.40;58.40;;;;;;4938281;28;21191;-64
2021/10/19 10:56:12;;;;;;;7.07;1.70;;;16.40;58.50;;;;;;4951185;28;20111;-63
2021/10/19 10:58:41;;;;;;;6.78;1.80;;;16.40;59.00;;;;;;4951264;28;20137;-63
2021/10/19 11:01:14;;;;;;;8.30;1.60;;;16.40;58.50;;;;;;4951390;28;20072;-63
2021/10/19 11:03:42;;;;;;;6.15;1.75;;;16.30;58.40;;;;;;4935215;28;20127;-65
2021/10/19 11:06:13;;;;;;;9.05;2.03;;;16.20;58.20;;;;;;4967742;28;20232;-63
2021/10/19 11:08:39;;;;;;;8.23;1.60;;;16.20;58.60;;;;;;4954354;28;20479;-65
2021/10/19 11:11:18;;;;;;;;;;;16.10;58.80;;;;;;4967862;28;20538;-64
2021/10/19 11:13:58;;;;;;;5.38;1.80;;;16.10;58.70;;;;;;4951929;28;19973;-63
2021/10/19 11:16:31;;;;;;;6.60;1.80;;;16.00;59.00;;;;;;4951535;28;20149;-64
2021/10/19 11:18:59;;;;;;;9.23;2.17;;;16.00;59.20;;;;;;4967504;28;20079;-63
2021/10/19 11:21:25;;;;;;;6.20;1.80;;;16.00;59.50;;;;;;4951629;28;20076;-62
2021/10/19 11:23:52;;;;;;;7.78;1.45;;;16.00;59.50;;;;;;4952148;28;20166;-65
2021/10/19 11:26:18;;;;;;;4.85;1.65;;;16.00;59.40;;;;;;4952548;28;20286;-65
2021/10/19 11:28:45;;;;;;;4.05;1.50;;;16.00;59.30;;;;;;4949789;28;20516;-62
2021/10/19 11:31:13;;;;;;;6.35;2.05;;;16.00;59.20;;;;;;4951948;28;20652;-64
2021/10/19 11:33:42;;;;;;;11.52;2.60;;;16.00;59.10;;;;;;4950550;28;20610;-65
2021/10/19 11:36:09;;;;;;;9.70;2.08;;;16.00;59.10;;;;;;4951941;28;20521;-64
2021/10/19 11:38:51;;;;;;;8.32;2.35;;;16.00;59.40;;;;;;4951125;28;20115;-64
2021/10/19 11:41:30;;;;;;;8.23;1.80;;;16.00;59.20;;;;;;4951309;28;20426;-62
2021/10/19 11:44:02;;;;;;;7.88;1.77;;;15.90;59.10;;;;;;4951070;28;20071;-62
2021/10/19 11:46:31;;;;;;;8.55;2.10;;;15.90;59.20;;;;;;4952605;28;20074;-64
2021/10/19 11:49:03;;;;;;;4.93;1.55;;;15.90;59.10;;;;;;4952913;28;20494;-64
2021/10/19 11:51:30;;;;;;;7.10;2.15;;;16.00;58.70;;;;;;4952385;28;20411;-61
2021/10/19 11:54:00;;;;;;;9.60;1.90;;;16.00;58.40;;;;;;4953509;28;20072;-62
2021/10/19 11:56:28;;;;;;;5.25;1.67;;;16.00;57.70;;;;;;4966882;28;20078;-63
2021/10/19 11:58:56;;;;;;;6.97;1.80;;;16.00;57.20;;;;;;4950863;28;20514;-63
2021/10/19 12:01:25;;;;;;;7.60;1.65;;;16.00;56.90;;;;;;4950647;28;20139;-62
2021/10/19 12:04:00;;;;;;;7.10;1.90;;;16.00;56.20;;;;;;4951742;28;20075;-64
2021/10/19 12:06:29;;;;;;;4.00;1.63;;;16.00;56.00;;;;;;4966346;28;20233;-64
2021/10/19 12:08:57;;;;;;;8.85;2.10;;;16.00;55.80;;;;;;4951111;28;20171;-62
2021/10/19 12:11:26;;;;;;;6.50;1.80;;;16.00;55.10;;;;;;4951895;28;20079;-64
2021/10/19 12:13:57;;;;;;;5.05;1.33;;;16.00;54.40;;;;;;4933919;28;20086;-62
2021/10/19 12:16:32;;;;;;;3.97;1.60;;;16.10;54.20;;;;;;4966191;28;20082;-64
2021/10/19 12:19:01;;;;;;;5.25;1.55;;;16.10;54.10;;;;;;4935011;28;20185;-64
2021/10/19 12:21:30;;;;;;;3.28;1.60;;;16.10;53.40;;;;;;4950542;28;20072;-63
2021/10/19 12:24:00;;;;;;;8.20;1.60;;;16.10;53.00;;;;;;4935298;28;20079;-63
2021/10/19 12:26:29;;;;;;;6.43;1.70;;;16.20;52.80;;;;;;4950959;28;20082;-62
2021/10/19 12:29:00;;;;;;;9.25;1.73;;;16.20;52.70;;;;;;4950277;28;20082;-61
2021/10/19 12:31:27;;;;;;;8.88;1.60;;;16.20;52.30;;;;;;4949991;28;20139;-62
2021/10/19 12:33:55;;;;;;;9.93;1.90;;;16.20;52.30;;;;;;4950892;28;20071;-63
2021/10/19 12:36:27;;;;;;;6.70;1.48;;;16.20;52.10;;;;;;4950709;28;20114;-65
2021/10/19 12:38:57;;;;;;;3.58;1.50;;;16.20;52.30;;;;;;4948479;28;20095;-64
2021/10/19 12:41:24;;;;;;;10.73;2.38;;;16.20;52.30;;;;;;4951148;28;20641;-62
2021/10/19 12:43:53;;;;;;;4.47;1.40;;;16.20;52.30;;;;;;4949914;28;20445;-65
2021/10/19 12:46:21;;;;;;;5.55;1.52;;;16.10;52.00;;;;;;4948945;28;20122;-63
2021/10/19 12:48:49;;;;;;;4.55;1.42;;;16.10;52.00;;;;;;4965830;28;20080;-64
2021/10/19 12:51:18;;;;;;;8.50;1.75;;;16.00;51.80;;;;;;4950127;28;20079;-63
2021/10/19 12:53:49;;;;;;;8.85;1.45;;;16.10;51.90;;;;;;4934585;28;20143;-63
2021/10/19 12:56:17;;;;;;;6.40;1.90;;;16.10;51.90;;;;;;4949506;28;20134;-64